Hikarimaru No.17 — JD2956 — position and weather

sailwx.info

Track history (hours):
 
Tides and Currents Weather Stations Pressure Air Temp Water Temp Dewpoint Dewpoint Depression Visibility Wind Speed Wind Dir Waves Ship Positions

Hikarimaru No.17

Last reported at 2014-Jul-29 14:30 UTC. Time now 2014-Jul-29 14:58 UTC.
Position N 34°23' E 135°02'.

Length 105 m; draft 6.6 m.

Type: Tanker. MMSI: 431000984.

Date/timePositionNaut miles runAvg speedWind from/ knotsBaromVisibWave heightAir tempDewpointWater temp
2014-Jul-29 14:30N 34°23' E 135°02'1212.5
2014-Jul-29 13:33N 34°11' E 135°04'6 0.9
2014-Jul-29 06:33N 34°09' E 135°10'1 0.2
2014-Jul-29 03:04N 34°09' E 135°11'2 4.1
2014-Jul-29 02:34N 34°09' E 135°09'0 0.0
2014-Jul-29 01:33N 34°09' E 135°09'0 0.1
2014-Jul-29 00:33N 34°09' E 135°09'0 0.0
2014-Jul-28 23:33N 34°10' E 135°09'0 0.0
2014-Jul-28 22:33N 34°10' E 135°09'1 1.4
2014-Jul-28 21:34N 34°10' E 135°07'1411.8
2014-Jul-28 20:21N 34°23' E 134°60'1113.7
2014-Jul-28 19:33N 34°34' E 135°03'12013.0
2014-Jul-28 10:22N 34°06' E 132°42'16 2.1
2014-Jul-28 03:04N 34°08' E 132°23'812.9
2014-Jul-28 02:25N 34°13' E 132°15'0 0.1
2014-Jul-27 22:33N 34°13' E 132°14'0 0.0
2014-Jul-26 22:33N 34°13' E 132°14'0 0.0
2014-Jul-26 21:33N 34°13' E 132°14'0 0.0
2014-Jul-26 20:33N 34°13' E 132°14'0 0.0
2014-Jul-26 19:24N 34°13' E 132°14'0 0.0
2014-Jul-26 18:30N 34°13' E 132°14'0 0.0
2014-Jul-26 17:33N 34°13' E 132°14'0 0.0
2014-Jul-26 16:33N 34°13' E 132°14'0 0.0
2014-Jul-26 15:33N 34°13' E 132°14'0 0.0
2014-Jul-26 14:18N 34°13' E 132°14'0 0.0
2014-Jul-26 08:15N 34°13' E 132°14'0 0.0
2014-Jul-26 06:06N 34°13' E 132°14'4 7.0
2014-Jul-26 05:32N 34°10' E 132°18'1711.3
2014-Jul-26 04:03N 34°04' E 132°37'116 5.7
2014-Jul-25 07:28N 34°35' E 134°53'1011.5
2014-Jul-25 06:33N 34°35' E 135°05'1312.7
2014-Jul-25 05:31N 34°22' E 135°01'1111.6
2014-Jul-25 04:32N 34°11' E 134°59'9 1.1
2014-Jul-24 20:26N 34°02' E 135°00'9 9.7
2014-Jul-24 19:32N 34°11' E 135°01'3 3.2
2014-Jul-24 18:34N 34°13' E 135°04'10 9.7
2014-Jul-24 17:33N 34°22' E 134°58'7 6.9
2014-Jul-24 16:32N 34°28' E 135°01'9 8.9
2014-Jul-24 15:33N 34°36' E 134°58'12011.8
2014-Jul-24 05:23N 34°04' E 132°38'10 0.6
2014-Jul-23 13:20N 34°05' E 132°27'810.8
2014-Jul-23 12:33N 34°04' E 132°37'110 6.1
2014-Jul-22 18:30N 34°40' E 134°42'1213.0
2014-Jul-22 17:33N 34°37' E 134°57'9 9.2
2014-Jul-22 16:33N 34°30' E 135°04'1313.1
2014-Jul-22 15:33N 34°18' E 134°59'1212.3
2014-Jul-22 14:33N 34°07' E 135°07'6 1.2
2014-Jul-22 09:33N 34°12' E 135°03'1111.1
2014-Jul-22 08:34N 34°23' E 134°60'1212.3
2014-Jul-22 07:33N 34°35' E 135°02'19 0.8
2014-Jul-21 08:22N 34°41' E 134°41'1214.3
2014-Jul-21 07:33N 34°37' E 134°54'1010.4
2014-Jul-21 06:33N 34°30' E 135°03'1414.2
2014-Jul-21 05:33N 34°16' E 134°59'11 2.0
2014-Jul-21 00:13N 34°08' E 135°07'5 7.5
2014-Jul-20 23:31N 34°13' E 135°08'0 0.0
2014-Jul-20 22:31N 34°13' E 135°08'0 0.0
2014-Jul-20 21:31N 34°13' E 135°08'0 0.0
2014-Jul-20 20:31N 34°13' E 135°08'0 0.0
2014-Jul-20 19:31N 34°13' E 135°08'0 0.0
2014-Jul-20 18:31N 34°13' E 135°08'0 0.0
2014-Jul-20 17:31N 34°13' E 135°08'0 0.0
2014-Jul-20 16:31N 34°13' E 135°08'0 0.0
2014-Jul-20 15:31N 34°13' E 135°08'0 0.0
2014-Jul-20 14:31N 34°13' E 135°08'0 0.0
2014-Jul-20 13:31N 34°13' E 135°08'0 0.0
2014-Jul-20 12:31N 34°13' E 135°08'0 0.0
2014-Jul-20 11:28N 34°13' E 135°08'0 0.0
2014-Jul-20 10:31N 34°13' E 135°08'0 0.0
2014-Jul-20 09:31N 34°13' E 135°08'0 0.0
2014-Jul-20 08:31N 34°13' E 135°08'0 0.0
2014-Jul-20 07:19N 34°13' E 135°08'0 0.0
2014-Jul-20 06:31N 34°13' E 135°08'0 0.0
2014-Jul-20 05:31N 34°13' E 135°08'0 0.0
2014-Jul-20 04:31N 34°13' E 135°08'0 0.0
2014-Jul-20 03:31N 34°13' E 135°08'0 0.0
2014-Jul-20 02:31N 34°13' E 135°08'0 0.0
2014-Jul-20 01:31N 34°13' E 135°08'0 0.0
2014-Jul-20 00:31N 34°13' E 135°08'0 0.0
2014-Jul-19 23:31N 34°13' E 135°08'0 0.0
2014-Jul-19 22:31N 34°13' E 135°08'0 0.0
2014-Jul-19 21:31N 34°13' E 135°08'0 0.0
2014-Jul-19 20:31N 34°13' E 135°08'0 0.0
2014-Jul-19 19:28N 34°13' E 135°08'0 0.0
2014-Jul-19 18:31N 34°13' E 135°08'0 0.0
2014-Jul-19 17:31N 34°13' E 135°08'0 0.0
2014-Jul-19 16:31N 34°13' E 135°08'0 0.0
2014-Jul-19 15:31N 34°13' E 135°08'0 0.0
2014-Jul-19 14:31N 34°13' E 135°08'  
Track history (hours):
 
Tides and Currents Weather Stations Pressure Air Temp Water Temp Dewpoint Dewpoint Depression Visibility Wind Speed Wind Dir Waves Ship Positions

Hikarimaru No.17

Last reported at 2014-Jul-29 14:30 UTC. Time now 2014-Jul-29 14:58 UTC.
Position N 34°23' E 135°02'.

Length 105 m; draft 6.6 m.

Type: Tanker. MMSI: 431000984.

Date/timePositionNaut miles runAvg speedWind from/ knotsBaromVisibWave heightAir tempDewpointWater temp
2014-Jul-29 14:30N 34°23' E 135°02'1212.5
2014-Jul-29 13:33N 34°11' E 135°04'6 0.9
2014-Jul-29 06:33N 34°09' E 135°10'1 0.2
2014-Jul-29 03:04N 34°09' E 135°11'2 4.1
2014-Jul-29 02:34N 34°09' E 135°09'0 0.0
2014-Jul-29 01:33N 34°09' E 135°09'0 0.1
2014-Jul-29 00:33N 34°09' E 135°09'0 0.0
2014-Jul-28 23:33N 34°10' E 135°09'0 0.0
2014-Jul-28 22:33N 34°10' E 135°09'1 1.4
2014-Jul-28 21:34N 34°10' E 135°07'1411.8
2014-Jul-28 20:21N 34°23' E 134°60'1113.7
2014-Jul-28 19:33N 34°34' E 135°03'12013.0
2014-Jul-28 10:22N 34°06' E 132°42'16 2.1
2014-Jul-28 03:04N 34°08' E 132°23'812.9
2014-Jul-28 02:25N 34°13' E 132°15'0 0.1
2014-Jul-27 22:33N 34°13' E 132°14'0 0.0
2014-Jul-26 22:33N 34°13' E 132°14'0 0.0
2014-Jul-26 21:33N 34°13' E 132°14'0 0.0
2014-Jul-26 20:33N 34°13' E 132°14'0 0.0
2014-Jul-26 19:24N 34°13' E 132°14'0 0.0
2014-Jul-26 18:30N 34°13' E 132°14'0 0.0
2014-Jul-26 17:33N 34°13' E 132°14'0 0.0
2014-Jul-26 16:33N 34°13' E 132°14'0 0.0
2014-Jul-26 15:33N 34°13' E 132°14'0 0.0
2014-Jul-26 14:18N 34°13' E 132°14'0 0.0
2014-Jul-26 08:15N 34°13' E 132°14'0 0.0
2014-Jul-26 06:06N 34°13' E 132°14'4 7.0
2014-Jul-26 05:32N 34°10' E 132°18'1711.3
2014-Jul-26 04:03N 34°04' E 132°37'116 5.7
2014-Jul-25 07:28N 34°35' E 134°53'1011.5
2014-Jul-25 06:33N 34°35' E 135°05'1312.7
2014-Jul-25 05:31N 34°22' E 135°01'1111.6
2014-Jul-25 04:32N 34°11' E 134°59'9 1.1
2014-Jul-24 20:26N 34°02' E 135°00'9 9.7
2014-Jul-24 19:32N 34°11' E 135°01'3 3.2
2014-Jul-24 18:34N 34°13' E 135°04'10 9.7
2014-Jul-24 17:33N 34°22' E 134°58'7 6.9
2014-Jul-24 16:32N 34°28' E 135°01'9 8.9
2014-Jul-24 15:33N 34°36' E 134°58'12011.8
2014-Jul-24 05:23N 34°04' E 132°38'10 0.6
2014-Jul-23 13:20N 34°05' E 132°27'810.8
2014-Jul-23 12:33N 34°04' E 132°37'110 6.1
2014-Jul-22 18:30N 34°40' E 134°42'1213.0
2014-Jul-22 17:33N 34°37' E 134°57'9 9.2
2014-Jul-22 16:33N 34°30' E 135°04'1313.1
2014-Jul-22 15:33N 34°18' E 134°59'1212.3
2014-Jul-22 14:33N 34°07' E 135°07'6 1.2
2014-Jul-22 09:33N 34°12' E 135°03'1111.1
2014-Jul-22 08:34N 34°23' E 134°60'1212.3
2014-Jul-22 07:33N 34°35' E 135°02'19 0.8
2014-Jul-21 08:22N 34°41' E 134°41'1214.3
2014-Jul-21 07:33N 34°37' E 134°54'1010.4
2014-Jul-21 06:33N 34°30' E 135°03'1414.2
2014-Jul-21 05:33N 34°16' E 134°59'11 2.0
2014-Jul-21 00:13N 34°08' E 135°07'5 7.5
2014-Jul-20 23:31N 34°13' E 135°08'0 0.0
2014-Jul-20 22:31N 34°13' E 135°08'0 0.0
2014-Jul-20 21:31N 34°13' E 135°08'0 0.0
2014-Jul-20 20:31N 34°13' E 135°08'0 0.0
2014-Jul-20 19:31N 34°13' E 135°08'0 0.0
2014-Jul-20 18:31N 34°13' E 135°08'0 0.0
2014-Jul-20 17:31N 34°13' E 135°08'0 0.0
2014-Jul-20 16:31N 34°13' E 135°08'0 0.0
2014-Jul-20 15:31N 34°13' E 135°08'0 0.0
2014-Jul-20 14:31N 34°13' E 135°08'0 0.0
2014-Jul-20 13:31N 34°13' E 135°08'0 0.0
2014-Jul-20 12:31N 34°13' E 135°08'0 0.0
2014-Jul-20 11:28N 34°13' E 135°08'0 0.0
2014-Jul-20 10:31N 34°13' E 135°08'0 0.0
2014-Jul-20 09:31N 34°13' E 135°08'0 0.0
2014-Jul-20 08:31N 34°13' E 135°08'0 0.0
2014-Jul-20 07:19N 34°13' E 135°08'0 0.0
2014-Jul-20 06:31N 34°13' E 135°08'0 0.0
2014-Jul-20 05:31N 34°13' E 135°08'0 0.0
2014-Jul-20 04:31N 34°13' E 135°08'0 0.0
2014-Jul-20 03:31N 34°13' E 135°08'0 0.0
2014-Jul-20 02:31N 34°13' E 135°08'0 0.0
2014-Jul-20 01:31N 34°13' E 135°08'0 0.0
2014-Jul-20 00:31N 34°13' E 135°08'0 0.0
2014-Jul-19 23:31N 34°13' E 135°08'0 0.0
2014-Jul-19 22:31N 34°13' E 135°08'0 0.0
2014-Jul-19 21:31N 34°13' E 135°08'0 0.0
2014-Jul-19 20:31N 34°13' E 135°08'0 0.0
2014-Jul-19 19:28N 34°13' E 135°08'0 0.0
2014-Jul-19 18:31N 34°13' E 135°08'0 0.0
2014-Jul-19 17:31N 34°13' E 135°08'0 0.0
2014-Jul-19 16:31N 34°13' E 135°08'0 0.0
2014-Jul-19 15:31N 34°13' E 135°08'0 0.0
2014-Jul-19 14:31N 34°13' E 135°08'  

Dump ship's entire track history